Time;durP1;ratioP1;P1;durP2;ratioP2;P2;SDS_P1;SDS_P2;PMS_P1;PMS_P2;Temp;Humidity;BMP_temperature;BMP_pressure;BME280_temperature;BME280_humidity;BME280_pressure;Samples;Min_cycle;Max_cycle;Signal;HPM_P1;HPM_P2
2022/08/02 00:01:14;;;;;;;4.67;1.90;;;16.70;99.90;;;;;;5062514;28;20472;-72
2022/08/02 00:03:39;;;;;;;5.60;2.00;;;16.70;99.90;;;;;;5063734;28;20386;-72
2022/08/02 00:06:05;;;;;;;7.67;2.07;;;16.70;99.90;;;;;;5065583;28;20583;-72
2022/08/02 00:08:32;;;;;;;5.88;2.22;;;16.70;99.90;;;;;;5066014;28;20783;-73
2022/08/02 00:10:57;;;;;;;8.90;2.30;;;16.60;99.90;;;;;;5067382;28;20746;-73
2022/08/02 00:13:23;;;;;;;5.47;2.10;;;16.60;99.90;;;;;;5068023;28;20694;-72
2022/08/02 00:15:48;;;;;;;7.00;1.98;;;16.60;99.90;;;;;;5070415;28;20391;-73
2022/08/02 00:18:14;;;;;;;6.30;2.17;;;16.50;99.90;;;;;;5069292;28;20402;-73
2022/08/02 00:20:39;;;;;;;4.70;2.08;;;16.40;99.90;;;;;;5067832;28;20800;-72
2022/08/02 00:23:05;;;;;;;8.40;2.10;;;16.40;99.90;;;;;;5067827;28;20435;-73
2022/08/02 00:25:30;;;;;;;6.60;2.10;;;16.40;99.90;;;;;;5069739;28;20669;-73
2022/08/02 00:27:56;;;;;;;5.07;2.13;;;16.40;99.90;;;;;;5069428;28;20384;-72
2022/08/02 00:30:22;;;;;;;3.97;1.90;;;16.30;99.90;;;;;;5068350;28;20426;-72
2022/08/02 00:32:47;;;;;;;6.43;2.42;;;16.30;99.90;;;;;;5068913;28;20514;-73
2022/08/02 00:35:13;;;;;;;6.37;2.30;;;16.30;99.90;;;;;;5068497;28;20423;-72
2022/08/02 00:37:40;;;;;;;7.17;1.87;;;16.20;99.90;;;;;;5067962;28;20795;-73
2022/08/02 00:40:07;;;;;;;5.15;2.03;;;16.20;99.90;;;;;;5067791;28;20442;-73
2022/08/02 00:42:33;;;;;;;5.30;1.73;;;16.30;99.90;;;;;;5067811;28;20384;-73
2022/08/02 00:44:59;;;;;;;5.93;2.40;;;16.20;99.90;;;;;;5069447;28;20395;-72
2022/08/02 00:47:24;;;;;;;6.03;2.20;;;16.10;99.90;;;;;;5066570;28;20415;-73
2022/08/02 00:49:50;;;;;;;7.80;2.28;;;16.00;99.90;;;;;;5066825;28;20466;-73
2022/08/02 00:52:15;;;;;;;6.20;2.17;;;16.00;99.90;;;;;;5063432;28;20384;-73
2022/08/02 00:54:41;;;;;;;4.38;1.80;;;15.90;99.90;;;;;;5066309;28;20426;-73
2022/08/02 00:57:07;;;;;;;5.77;2.30;;;15.90;99.90;;;;;;5066704;28;20487;-73
2022/08/02 00:59:32;;;;;;;5.10;2.03;;;15.90;99.90;;;;;;5066268;28;20498;-73
2022/08/02 01:01:58;;;;;;;5.03;1.85;;;15.90;99.90;;;;;;5066439;28;20422;-73
2022/08/02 01:04:27;;;;;;;5.23;2.00;;;15.90;99.90;;;;;;5065707;28;20466;-73
2022/08/02 01:06:52;;;;;;;5.70;2.10;;;15.90;99.90;;;;;;5067610;28;20736;-73
2022/08/02 01:09:18;;;;;;;6.13;2.20;;;15.90;99.90;;;;;;5066567;28;20827;-73
2022/08/02 01:11:43;;;;;;;5.50;2.10;;;15.80;99.90;;;;;;5066752;28;20411;-73
2022/08/02 01:14:11;;;;;;;4.57;1.90;;;15.80;99.90;;;;;;5070262;28;20384;-73
2022/08/02 01:16:45;;;;;;;5.72;1.95;;;15.80;99.90;;;;;;5069384;28;20383;-73
2022/08/02 01:19:22;;;;;;;5.05;2.17;;;15.70;99.90;;;;;;5068366;28;20672;-73
2022/08/02 01:22:23;;;;;;;5.03;2.13;;;15.70;99.90;;;;;;5070479;28;20653;-72
2022/08/02 01:25:13;;;;;;;6.35;2.30;;;15.60;99.90;;;;;;5071161;28;20396;-72
2022/08/02 01:28:06;;;;;;;6.93;2.10;;;15.60;99.90;;;;;;5071087;28;20376;-72
2022/08/02 01:30:33;;;;;;;5.50;1.92;;;15.60;99.90;;;;;;5070010;28;20399;-72
2022/08/02 01:33:02;;;;;;;5.15;1.90;;;15.60;99.90;;;;;;5069668;28;20411;-73
2022/08/02 01:35:38;;;;;;;4.43;1.80;;;15.50;99.90;;;;;;5069101;28;20519;-73
2022/08/02 01:38:13;;;;;;;4.78;2.30;;;15.50;99.90;;;;;;5068277;28;20392;-73
2022/08/02 01:40:41;;;;;;;7.75;2.13;;;15.50;99.90;;;;;;5067512;28;20644;-73
2022/08/02 01:43:09;;;;;;;6.10;2.00;;;15.50;99.90;;;;;;5069597;28;20384;-73
2022/08/02 01:45:38;;;;;;;4.47;2.28;;;15.40;99.90;;;;;;5069921;28;20804;-73
2022/08/02 01:48:07;;;;;;;4.60;2.10;;;15.40;99.90;;;;;;5068096;28;20772;-73
2022/08/02 01:50:34;;;;;;;5.65;2.15;;;15.40;99.90;;;;;;5070110;28;20500;-73
2022/08/02 01:53:06;;;;;;;4.95;2.08;;;15.40;99.90;;;;;;5068699;28;20458;-73
2022/08/02 01:55:47;;;;;;;4.97;2.00;;;15.30;99.90;;;;;;5069660;28;20403;-74
2022/08/02 01:58:16;;;;;;;7.15;2.47;;;15.30;99.90;;;;;;5067473;28;20461;-73
2022/08/02 02:00:43;;;;;;;5.03;1.90;;;15.30;99.90;;;;;;5068958;28;20396;-72
2022/08/02 02:03:17;;;;;;;6.22;2.35;;;15.20;99.90;;;;;;5071890;28;20773;-73
2022/08/02 02:05:45;;;;;;;5.28;2.35;;;15.20;99.90;;;;;;5071838;28;20450;-72
2022/08/02 02:08:12;;;;;;;5.77;2.30;;;15.20;99.90;;;;;;5073472;28;20445;-72
2022/08/02 02:10:39;;;;;;;6.45;2.00;;;15.20;99.90;;;;;;5073089;28;20387;-73
2022/08/02 02:13:12;;;;;;;5.10;2.20;;;15.20;99.90;;;;;;5074502;28;20386;-72
2022/08/02 02:15:46;;;;;;;5.27;2.23;;;15.20;99.90;;;;;;5072456;28;20541;-72
2022/08/02 02:18:22;;;;;;;5.43;2.10;;;15.20;99.90;;;;;;5072882;28;20398;-73
2022/08/02 02:20:48;;;;;;;6.55;2.20;;;15.20;99.90;;;;;;5073472;28;20384;-72
2022/08/02 02:23:16;;;;;;;5.80;2.00;;;15.10;99.90;;;;;;5072550;28;20396;-72
2022/08/02 02:25:42;;;;;;;5.18;1.88;;;15.20;99.90;;;;;;5070792;28;20380;-72
2022/08/02 02:28:15;;;;;;;6.53;2.30;;;15.10;99.90;;;;;;5072367;28;20442;-72
2022/08/02 02:30:46;;;;;;;4.90;1.80;;;15.10;99.90;;;;;;5073771;28;20379;-73
2022/08/02 02:33:15;;;;;;;4.25;1.80;;;15.10;99.90;;;;;;5073668;28;20408;-73
2022/08/02 02:35:42;;;;;;;6.55;2.42;;;15.10;99.90;;;;;;5074839;28;20814;-72
2022/08/02 02:38:13;;;;;;;4.05;2.00;;;15.00;99.90;;;;;;5074588;28;20443;-72
2022/08/02 02:40:40;;;;;;;5.97;2.40;;;15.00;99.90;;;;;;5074645;28;20402;-72
2022/08/02 02:43:08;;;;;;;7.43;2.45;;;14.90;99.90;;;;;;5074685;28;20520;-72
2022/08/02 02:45:35;;;;;;;4.85;2.03;;;14.90;99.90;;;;;;5075054;28;20391;-72
2022/08/02 02:48:02;;;;;;;7.22;2.35;;;14.90;99.90;;;;;;5072895;28;20473;-72
2022/08/02 02:50:29;;;;;;;4.65;2.22;;;14.80;99.90;;;;;;5073048;28;20865;-72
2022/08/02 02:52:55;;;;;;;6.57;2.00;;;14.80;99.90;;;;;;5073242;28;20484;-72
2022/08/02 02:55:23;;;;;;;5.40;2.03;;;14.80;99.90;;;;;;5073905;28;20798;-73
2022/08/02 02:57:49;;;;;;;6.30;2.50;;;14.70;99.90;;;;;;5072731;28;20379;-72
2022/08/02 03:00:14;;;;;;;6.35;2.00;;;14.60;99.90;;;;;;5071655;28;20406;-72
2022/08/02 03:02:42;;;;;;;5.03;1.92;;;14.60;99.90;;;;;;5070447;28;20383;-72
2022/08/02 03:05:10;;;;;;;6.57;2.08;;;14.60;99.90;;;;;;5069514;28;20687;-72
2022/08/02 03:07:37;;;;;;;7.80;2.03;;;14.60;99.90;;;;;;5069069;28;20384;-72
2022/08/02 03:10:04;;;;;;;4.38;1.80;;;14.60;99.90;;;;;;5068537;28;20395;-73
2022/08/02 03:12:30;;;;;;;3.38;2.10;;;14.60;99.90;;;;;;5065851;28;20792;-73
2022/08/02 03:15:01;;;;;;;5.28;2.10;;;14.60;99.90;;;;;;5066547;28;20482;-71
2022/08/02 03:17:43;;;;;;;6.13;1.90;;;14.60;99.90;;;;;;5064916;28;20383;-71
2022/08/02 03:20:12;;;;;;;5.18;1.75;;;14.60;99.90;;;;;;5065166;28;20704;-71
2022/08/02 03:22:39;;;;;;;3.70;1.85;;;14.60;99.90;;;;;;5066200;28;20391;-73
2022/08/02 03:25:06;;;;;;;6.90;2.33;;;14.60;99.90;;;;;;5066710;28;20387;-72
2022/08/02 03:27:31;;;;;;;4.20;2.08;;;14.60;99.90;;;;;;5069725;28;20676;-72
2022/08/02 03:29:57;;;;;;;5.47;2.20;;;14.60;99.90;;;;;;5069493;28;20468;-72
2022/08/02 03:32:23;;;;;;;5.50;2.00;;;14.60;99.90;;;;;;5070249;28;20396;-73
2022/08/02 03:34:49;;;;;;;5.25;2.15;;;14.60;99.90;;;;;;5071974;28;20397;-72
2022/08/02 03:37:15;;;;;;;5.72;2.53;;;14.60;99.90;;;;;;5071116;28;20580;-71
2022/08/02 03:39:41;;;;;;;4.20;2.30;;;14.60;99.90;;;;;;5069596;28;20408;-72
2022/08/02 03:42:07;;;;;;;5.83;2.50;;;14.40;99.90;;;;;;5071339;28;20388;-72
2022/08/02 03:44:34;;;;;;;4.68;2.13;;;14.40;99.90;;;;;;5072990;28;20921;-72
2022/08/02 03:47:00;;;;;;;5.63;2.53;;;14.50;99.90;;;;;;5073011;28;20411;-73
2022/08/02 03:49:27;;;;;;;5.72;2.80;;;14.40;99.90;;;;;;5070350;28;20399;-73
2022/08/02 03:51:54;;;;;;;5.07;2.40;;;14.50;99.90;;;;;;5072229;28;20564;-73
2022/08/02 03:54:20;;;;;;;5.25;2.03;;;14.50;99.90;;;;;;5070117;28;20408;-73
2022/08/02 03:56:46;;;;;;;5.30;2.20;;;14.50;99.90;;;;;;5072118;28;20392;-73
2022/08/02 03:59:13;;;;;;;4.63;2.20;;;14.50;99.90;;;;;;5070153;28;20399;-72
2022/08/02 04:01:39;;;;;;;5.28;2.22;;;14.50;99.90;;;;;;5066695;28;20431;-73
2022/08/02 04:04:06;;;;;;;5.47;2.50;;;14.60;99.90;;;;;;5065259;28;20380;-72
2022/08/02 04:06:32;;;;;;;7.45;2.53;;;14.60;99.90;;;;;;5067325;28;20540;-73
2022/08/02 04:08:57;;;;;;;6.53;2.55;;;14.60;99.90;;;;;;5068299;28;20454;-72
2022/08/02 04:11:32;;;;;;;6.60;2.50;;;14.50;99.90;;;;;;5067481;28;20490;-72
2022/08/02 04:14:08;;;;;;;4.45;2.25;;;14.50;99.90;;;;;;5069468;28;20402;-72
2022/08/02 04:16:34;;;;;;;6.32;3.00;;;14.60;99.90;;;;;;5067594;28;20398;-73
2022/08/02 04:19:01;;;;;;;8.07;3.00;;;14.50;99.90;;;;;;5066244;28;20395;-73
2022/08/02 04:21:32;;;;;;;4.82;2.95;;;14.50;99.90;;;;;;5066668;28;20482;-72
2022/08/02 04:24:01;;;;;;;4.18;2.45;;;14.50;99.90;;;;;;5065835;28;20420;-72
2022/08/02 04:26:28;;;;;;;7.55;2.97;;;14.50;99.90;;;;;;5064279;28;20426;-73
2022/08/02 04:28:54;;;;;;;5.57;2.73;;;14.50;99.90;;;;;;5064996;28;20395;-73
2022/08/02 04:31:21;;;;;;;6.35;2.50;;;14.60;99.90;;;;;;5062434;28;20798;-73
2022/08/02 04:33:47;;;;;;;6.55;2.75;;;14.60;99.90;;;;;;5066157;28;20407;-74
2022/08/02 04:36:15;;;;;;;8.10;3.08;;;14.50;99.90;;;;;;5064917;28;20734;-73
2022/08/02 04:38:41;;;;;;;5.93;2.30;;;14.50;99.90;;;;;;5064923;28;20408;-73
2022/08/02 04:41:07;;;;;;;6.00;2.67;;;14.50;99.90;;;;;;5063847;28;20485;-73
2022/08/02 04:43:33;;;;;;;6.28;2.95;;;14.50;99.90;;;;;;5061646;28;20804;-73
2022/08/02 04:46:01;;;;;;;4.45;2.25;;;14.50;99.90;;;;;;5061322;28;20626;-73
2022/08/02 04:48:27;;;;;;;5.65;2.50;;;14.50;99.90;;;;;;5062383;28;20691;-73
2022/08/02 04:50:53;;;;;;;6.27;2.63;;;14.60;99.90;;;;;;5063093;28;20384;-73
2022/08/02 04:53:19;;;;;;;6.13;2.90;;;14.60;99.90;;;;;;5062420;28;20549;-73
2022/08/02 04:55:45;;;;;;;6.72;3.00;;;14.60;99.90;;;;;;5063465;28;20453;-73
2022/08/02 04:58:11;;;;;;;6.07;3.25;;;14.50;99.90;;;;;;5062579;28;20391;-73
2022/08/02 05:00:37;;;;;;;7.47;3.10;;;14.40;99.90;;;;;;5064023;28;20664;-72
2022/08/02 05:03:02;;;;;;;8.60;3.37;;;14.40;99.90;;;;;;5060903;28;20839;-72
2022/08/02 05:05:28;;;;;;;5.32;2.90;;;14.40;99.90;;;;;;5059909;28;20387;-73
2022/08/02 05:07:54;;;;;;;6.13;3.00;;;14.40;99.90;;;;;;5058168;28;20387;-72
2022/08/02 05:10:20;;;;;;;5.85;2.72;;;14.50;99.90;;;;;;5060140;28;20372;-73
2022/08/02 05:12:45;;;;;;;5.10;3.00;;;14.50;99.90;;;;;;5057594;28;20410;-72
2022/08/02 05:15:12;;;;;;;5.33;3.20;;;14.50;99.90;;;;;;5058431;28;20865;-73
2022/08/02 05:17:38;;;;;;;6.75;3.60;;;14.50;99.90;;;;;;5060248;28;20776;-73
2022/08/02 05:20:05;;;;;;;5.30;3.00;;;14.60;99.90;;;;;;5060845;28;20685;-73
2022/08/02 05:22:30;;;;;;;7.20;3.30;;;14.60;99.90;;;;;;5061311;28;20452;-73
2022/08/02 05:24:56;;;;;;;11.00;4.30;;;14.60;99.90;;;;;;5061249;28;20454;-72
2022/08/02 05:27:21;;;;;;;7.63;3.63;;;14.60;99.90;;;;;;5061786;28;20662;-72
2022/08/02 05:29:47;;;;;;;8.13;3.67;;;14.60;99.90;;;;;;5061398;28;20449;-72
2022/08/02 05:32:13;;;;;;;7.82;3.75;;;14.60;99.90;;;;;;5061706;28;20411;-73
2022/08/02 05:34:38;;;;;;;12.27;4.35;;;14.60;99.90;;;;;;5060639;28;20384;-72
2022/08/02 05:37:04;;;;;;;6.83;3.90;;;14.60;99.90;;;;;;5062466;28;20388;-73
2022/08/02 05:39:29;;;;;;;10.40;4.03;;;14.50;99.90;;;;;;5065854;28;20535;-73
2022/08/02 05:41:55;;;;;;;14.15;4.35;;;14.40;99.90;;;;;;5063960;28;20691;-72
2022/08/02 05:44:21;;;;;;;10.03;4.10;;;14.30;99.90;;;;;;5062241;28;20387;-72
2022/08/02 05:46:46;;;;;;;9.70;3.83;;;14.30;99.90;;;;;;5063177;28;20390;-72
2022/08/02 05:49:12;;;;;;;12.90;4.72;;;14.30;99.90;;;;;;5063507;28;20399;-71
2022/08/02 05:51:51;;;;;;;12.63;4.03;;;14.30;99.90;;;;;;5063159;28;20646;-72
2022/08/02 05:54:24;;;;;;;9.30;3.83;;;14.30;99.90;;;;;;5061600;28;20807;-73
2022/08/02 05:56:58;;;;;;;13.63;4.10;;;14.30;99.90;;;;;;5060802;28;20610;-72
2022/08/02 05:59:52;;;;;;;10.70;3.73;;;14.40;99.90;;;;;;5062292;28;20929;-72
2022/08/02 06:02:38;;;;;;;10.45;3.85;;;14.50;99.90;;;;;;5043954;28;20411;-72
2022/08/02 06:05:09;;;;;;;7.93;3.53;;;14.50;99.90;;;;;;5074828;28;21059;-73
2022/08/02 06:07:36;;;;;;;9.13;3.30;;;14.50;99.90;;;;;;5057176;28;20437;-73
2022/08/02 06:10:06;;;;;;;6.28;2.63;;;14.60;99.90;;;;;;5056415;28;20387;-72
2022/08/02 06:12:38;;;;;;;8.18;3.58;;;14.70;99.90;;;;;;5057743;28;20376;-73
2022/08/02 06:15:04;;;;;;;7.13;2.83;;;14.80;99.90;;;;;;5055889;28;20495;-74
2022/08/02 06:17:31;;;;;;;6.13;2.60;;;14.90;99.90;;;;;;5056492;28;20746;-73
2022/08/02 06:19:58;;;;;;;8.70;2.90;;;14.90;99.90;;;;;;5056233;28;20884;-73
2022/08/02 06:22:26;;;;;;;7.80;2.90;;;15.00;99.90;;;;;;5056294;28;20657;-72
2022/08/02 06:24:54;;;;;;;11.60;3.15;;;15.00;99.90;;;;;;5056063;28;20491;-72
2022/08/02 06:27:20;;;;;;;5.38;2.20;;;14.80;99.90;;;;;;5057317;28;20545;-72
2022/08/02 06:29:48;;;;;;;7.35;2.72;;;14.80;99.90;;;;;;5060102;28;20411;-72
2022/08/02 06:32:18;;;;;;;10.00;2.63;;;14.90;99.90;;;;;;5059373;28;20730;-71
2022/08/02 06:34:44;;;;;;;13.23;3.03;;;14.80;99.90;;;;;;5062928;28;20818;-71
2022/08/02 06:37:15;;;;;;;7.33;2.60;;;14.90;99.90;;;;;;5059145;28;20795;-72
2022/08/02 06:39:50;;;;;;;8.27;2.70;;;14.90;99.90;;;;;;5058007;28;20434;-71
2022/08/02 06:42:30;;;;;;;10.20;2.80;;;15.10;99.90;;;;;;5054921;28;20702;-71
2022/08/02 06:44:56;;;;;;;6.35;2.72;;;15.10;99.90;;;;;;5055289;28;20800;-72
2022/08/02 06:47:21;;;;;;;7.40;2.78;;;15.20;99.90;;;;;;5053967;28;20382;-72
2022/08/02 06:49:47;;;;;;;10.30;3.05;;;15.20;99.90;;;;;;5055486;28;20599;-71
2022/08/02 06:52:13;;;;;;;10.67;2.70;;;15.10;99.90;;;;;;5058055;28;20391;-72
2022/08/02 06:54:41;;;;;;;6.80;2.30;;;15.10;99.90;;;;;;5058059;28;20739;-72
2022/08/02 06:57:08;;;;;;;3.33;1.67;;;15.20;99.90;;;;;;5057359;28;20592;-72
2022/08/02 06:59:33;;;;;;;5.05;2.00;;;15.30;99.90;;;;;;5057061;28;20624;-72
2022/08/02 07:02:01;;;;;;;11.13;2.92;;;15.50;99.90;;;;;;5056786;28;20396;-71
2022/08/02 07:04:28;;;;;;;7.10;2.17;;;15.50;99.90;;;;;;5054414;28;20477;-72
2022/08/02 07:06:55;;;;;;;5.28;1.73;;;15.60;99.90;;;;;;5054524;28;20387;-72
2022/08/02 07:09:21;;;;;;;9.88;2.80;;;15.80;99.90;;;;;;5057167;28;20850;-72
2022/08/02 07:11:46;;;;;;;10.27;3.00;;;15.60;99.90;;;;;;5054768;28;20550;-72
2022/08/02 07:14:12;;;;;;;7.70;2.57;;;15.50;99.90;;;;;;5052685;28;20686;-72
2022/08/02 07:16:37;;;;;;;5.22;2.00;;;15.50;99.90;;;;;;5054513;28;20554;-72
2022/08/02 07:19:03;;;;;;;6.83;2.30;;;15.60;99.90;;;;;;5056325;28;20527;-72
2022/08/02 07:21:29;;;;;;;5.88;2.00;;;15.70;99.90;;;;;;5056468;28;20546;-72
2022/08/02 07:23:54;;;;;;;8.10;2.17;;;15.80;99.90;;;;;;5054675;28;20411;-71
2022/08/02 07:26:20;;;;;;;6.43;1.80;;;15.90;99.90;;;;;;5057164;28;20475;-71
2022/08/02 07:28:45;;;;;;;10.75;2.55;;;16.00;99.90;;;;;;5055655;28;20374;-72
2022/08/02 07:31:11;;;;;;;9.63;2.23;;;16.10;99.90;;;;;;5055380;28;20426;-72
2022/08/02 07:33:36;;;;;;;7.93;2.40;;;16.00;99.90;;;;;;5053324;28;20436;-72
2022/08/02 07:36:02;;;;;;;7.75;2.20;;;16.00;99.90;;;;;;5054972;28;20392;-71
2022/08/02 07:38:28;;;;;;;8.23;2.35;;;16.00;99.90;;;;;;5056184;28;20426;-71
2022/08/02 07:40:54;;;;;;;11.07;2.90;;;16.10;99.90;;;;;;5055826;28;20408;-72
2022/08/02 07:43:20;;;;;;;8.32;2.50;;;16.10;99.90;;;;;;5055732;28;20391;-72
2022/08/02 07:45:45;;;;;;;8.52;2.65;;;16.20;99.90;;;;;;5058194;28;20402;-72
2022/08/02 07:48:11;;;;;;;9.38;2.70;;;16.00;99.90;;;;;;5062853;28;20946;-72
2022/08/02 07:50:37;;;;;;;2.88;1.35;;;15.90;99.90;;;;;;5065469;28;20396;-72
2022/08/02 07:53:02;;;;;;;11.50;3.20;;;16.10;99.90;;;;;;5065373;28;20410;-72
2022/08/02 07:55:28;;;;;;;11.30;2.78;;;16.10;99.90;;;;;;5067048;28;20449;-72
2022/08/02 07:58:00;;;;;;;8.50;2.30;;;16.10;99.90;;;;;;5065423;28;20391;-65
2022/08/02 08:00:26;;;;;;;8.10;2.60;;;16.00;99.90;;;;;;5070871;28;20447;-65
2022/08/02 08:02:51;;;;;;;8.67;2.30;;;16.00;99.90;;;;;;5067741;28;20465;-65
2022/08/02 08:05:17;;;;;;;9.52;2.78;;;16.10;99.90;;;;;;5071235;28;20868;-65
2022/08/02 08:07:42;;;;;;;5.83;2.13;;;16.30;99.90;;;;;;5072333;28;20387;-65
2022/08/02 08:10:08;;;;;;;8.67;2.87;;;16.40;99.90;;;;;;5073477;28;20399;-65
2022/08/02 08:12:34;;;;;;;6.95;2.40;;;16.60;99.90;;;;;;5073300;28;20956;-65
2022/08/02 08:15:00;;;;;;;9.52;2.60;;;16.70;99.90;;;;;;5072703;28;21001;-65
2022/08/02 08:17:26;;;;;;;10.50;2.80;;;16.80;99.90;;;;;;5071019;28;20388;-65
2022/08/02 08:19:51;;;;;;;7.75;2.22;;;16.70;99.90;;;;;;5070958;28;20410;-66
2022/08/02 08:22:18;;;;;;;7.00;2.30;;;16.80;99.90;;;;;;5068818;28;20455;-65
2022/08/02 08:24:44;;;;;;;8.27;2.53;;;16.90;99.90;;;;;;5068337;28;20395;-65
2022/08/02 08:27:13;;;;;;;6.40;1.90;;;17.00;99.90;;;;;;5070229;28;20422;-65
2022/08/02 08:29:40;;;;;;;5.50;2.05;;;17.00;99.90;;;;;;5070819;28;20440;-66
2022/08/02 08:32:07;;;;;;;9.13;2.58;;;17.20;99.90;;;;;;5068273;28;20409;-65
2022/08/02 08:34:33;;;;;;;7.88;2.20;;;17.10;99.90;;;;;;5073483;28;20396;-65
2022/08/02 08:36:59;;;;;;;6.78;2.30;;;17.20;99.90;;;;;;5070657;28;20410;-65
2022/08/02 08:39:24;;;;;;;4.90;2.17;;;17.20;99.90;;;;;;5063207;28;20812;-66
2022/08/02 08:41:50;;;;;;;7.97;2.50;;;17.20;99.90;;;;;;5060687;28;20392;-66
2022/08/02 08:44:16;;;;;;;6.47;2.23;;;17.20;99.90;;;;;;5063196;28;20391;-66
2022/08/02 08:46:42;;;;;;;10.33;2.33;;;17.30;99.90;;;;;;5059981;28;20380;-65
2022/08/02 08:49:18;;;;;;;8.25;2.33;;;17.30;99.90;;;;;;5059913;28;20574;-65
2022/08/02 08:51:44;;;;;;;7.28;2.13;;;17.40;99.90;;;;;;5064158;28;20482;-65
2022/08/02 08:54:14;;;;;;;7.97;2.20;;;17.40;99.90;;;;;;5060948;28;20557;-65
2022/08/02 08:56:41;;;;;;;7.13;2.38;;;17.50;99.90;;;;;;5062331;28;20920;-65
2022/08/02 08:59:07;;;;;;;7.00;2.42;;;17.50;99.90;;;;;;5060735;28;20400;-65
2022/08/02 09:01:33;;;;;;;6.40;2.35;;;17.50;99.90;;;;;;5062906;28;20414;-65
2022/08/02 09:03:59;;;;;;;5.57;2.13;;;17.70;99.90;;;;;;5063810;28;20441;-65
2022/08/02 09:06:25;;;;;;;6.72;2.13;;;17.80;99.90;;;;;;5060952;28;20384;-65
2022/08/02 09:08:51;;;;;;;7.13;2.20;;;18.10;99.90;;;;;;5061745;28;20410;-65
2022/08/02 09:11:22;;;;;;;5.47;1.85;;;18.20;99.90;;;;;;5063179;28;20384;-65
2022/08/02 09:13:57;;;;;;;5.05;1.95;;;18.10;99.90;;;;;;5062210;28;20817;-65
2022/08/02 09:16:42;;;;;;;6.30;1.98;;;18.10;99.90;;;;;;5063774;28;20859;-65
2022/08/02 09:19:19;;;;;;;8.63;2.40;;;18.20;99.90;;;;;;5061759;28;20418;-65
2022/08/02 09:21:47;;;;;;;7.38;2.42;;;18.30;99.90;;;;;;5063797;28;20467;-65
2022/08/02 09:24:17;;;;;;;5.43;1.75;;;18.30;99.90;;;;;;5064259;28;20409;-65
2022/08/02 09:26:44;;;;;;;8.13;2.40;;;18.20;99.90;;;;;;5062623;28;20391;-65
2022/08/02 09:29:10;;;;;;;5.95;2.20;;;18.30;99.90;;;;;;5061781;28;20684;-65
2022/08/02 09:31:35;;;;;;;4.47;1.80;;;18.30;99.90;;;;;;5060916;28;20465;-65
2022/08/02 09:34:02;;;;;;;8.10;2.10;;;18.30;99.90;;;;;;5060978;28;20749;-65
2022/08/02 09:36:37;;;;;;;10.93;2.70;;;18.50;99.90;;;;;;5064746;28;20790;-64
2022/08/02 09:39:05;;;;;;;6.75;2.35;;;18.50;99.90;;;;;;5065994;28;20614;-65
2022/08/02 09:41:34;;;;;;;5.32;2.00;;;18.60;99.90;;;;;;5062318;28;20451;-64
2022/08/02 09:44:02;;;;;;;7.43;1.95;;;18.70;99.90;;;;;;5060958;28;20461;-65
2022/08/02 09:46:29;;;;;;;7.95;2.30;;;18.70;99.90;;;;;;5061393;28;20376;-65
2022/08/02 09:48:55;;;;;;;8.63;2.60;;;18.60;99.90;;;;;;5063475;28;20868;-64
2022/08/02 09:51:25;;;;;;;7.55;2.20;;;18.80;99.90;;;;;;5064968;28;20594;-64
2022/08/02 09:53:56;;;;;;;8.60;2.42;;;18.70;99.90;;;;;;5069859;28;20677;-66
2022/08/02 09:56:23;;;;;;;3.50;1.58;;;18.80;99.90;;;;;;5068614;28;20515;-66
2022/08/02 09:58:52;;;;;;;6.70;2.20;;;18.80;99.90;;;;;;5068834;28;20768;-65
2022/08/02 10:01:20;;;;;;;9.13;2.08;;;18.90;99.90;;;;;;5070193;28;20407;-65
2022/08/02 10:04:03;;;;;;;8.40;2.30;;;19.10;99.90;;;;;;5069093;28;20422;-65
2022/08/02 10:06:30;;;;;;;6.45;2.13;;;19.20;99.90;;;;;;5068320;28;20411;-65
2022/08/02 10:08:56;;;;;;;5.90;2.30;;;19.30;99.90;;;;;;5070321;28;20394;-65
2022/08/02 10:11:24;;;;;;;6.63;1.90;;;19.30;99.90;;;;;;5072424;28;20392;-65
2022/08/02 10:13:50;;;;;;;4.72;1.92;;;19.30;99.90;;;;;;5073281;28;20678;-65
2022/08/02 10:16:19;;;;;;;7.80;2.20;;;19.40;99.90;;;;;;5076141;28;20420;-66
2022/08/02 10:18:45;;;;;;;8.32;2.40;;;19.40;99.90;;;;;;5075172;28;20403;-65
2022/08/02 10:21:35;;;;;;;7.82;1.92;;;19.50;99.90;;;;;;5073143;28;20394;-66
2022/08/02 10:24:21;;;;;;;6.63;2.20;;;19.40;99.90;;;;;;5087774;28;20392;-66
2022/08/02 10:26:48;;;;;;;6.70;2.00;;;19.50;99.90;;;;;;5071038;28;20387;-66
2022/08/02 10:29:18;;;;;;;6.05;2.10;;;19.60;99.90;;;;;;5068782;28;20433;-66
2022/08/02 10:31:55;;;;;;;6.68;2.08;;;19.60;99.90;;;;;;5069178;28;20407;-66
2022/08/02 10:34:25;;;;;;;7.80;2.08;;;19.70;99.90;;;;;;5068962;28;20412;-66
2022/08/02 10:36:53;;;;;;;3.60;1.75;;;19.80;99.90;;;;;;5068495;28;20388;-65
2022/08/02 10:39:18;;;;;;;6.38;1.80;;;19.90;99.90;;;;;;5066330;28;20404;-66
2022/08/02 10:41:50;;;;;;;7.57;1.70;;;19.90;99.90;;;;;;5066877;28;20407;-70
2022/08/02 10:44:27;;;;;;;4.22;1.63;;;20.00;99.90;;;;;;5066880;28;20383;-70
2022/08/02 10:47:13;;;;;;;2.87;1.40;;;20.10;99.90;;;;;;5068753;28;20391;-70
2022/08/02 10:49:57;;;;;;;5.68;1.77;;;20.20;99.90;;;;;;5083758;28;20399;-69
2022/08/02 10:52:24;;;;;;;5.50;1.60;;;20.20;99.90;;;;;;5065625;28;20453;-69
2022/08/02 10:54:58;;;;;;;3.95;1.48;;;20.30;99.90;;;;;;5066500;28;20400;-70
2022/08/02 10:57:33;;;;;;;5.13;2.00;;;20.40;99.90;;;;;;5066846;28;20388;-70
2022/08/02 11:00:11;;;;;;;5.40;1.65;;;20.50;99.90;;;;;;5063454;28;20490;-70
2022/08/02 11:02:42;;;;;;;4.97;1.83;;;20.50;99.90;;;;;;5064596;28;20395;-70
2022/08/02 11:05:13;;;;;;;4.90;1.52;;;20.40;99.90;;;;;;5065115;28;20382;-70
2022/08/02 11:07:43;;;;;;;7.13;1.73;;;20.40;99.90;;;;;;5064674;28;20376;-70
2022/08/02 11:10:29;;;;;;;5.70;1.67;;;20.50;99.90;;;;;;5066508;28;20438;-70
2022/08/02 11:13:09;;;;;;;2.78;1.33;;;20.70;99.90;;;;;;5066189;28;20383;-70
2022/08/02 11:16:01;;;;;;;5.35;1.60;;;20.80;99.90;;;;;;5063016;28;20398;-70
2022/08/02 11:18:48;;;;;;;4.72;1.33;;;20.90;99.90;;;;;;5065006;28;20442;-70
2022/08/02 11:21:34;;;;;;;3.90;1.27;;;21.10;99.90;;;;;;5067145;28;20387;-70
2022/08/02 11:24:23;;;;;;;3.75;1.23;;;21.20;99.90;;;;;;5066691;28;20525;-70
2022/08/02 11:26:49;;;;;;;4.93;1.70;;;21.30;99.90;;;;;;5068071;28;20458;-70
2022/08/02 11:29:14;;;;;;;4.85;1.60;;;21.40;99.90;;;;;;5065623;28;20387;-70
2022/08/02 11:31:42;;;;;;;4.03;1.27;;;21.50;99.90;;;;;;5065490;28;20376;-70
2022/08/02 11:34:10;;;;;;;3.80;1.30;;;21.80;99.90;;;;;;5062614;28;20476;-71
2022/08/02 11:36:47;;;;;;;6.45;1.63;;;21.90;99.90;;;;;;5062513;28;20422;-70
2022/08/02 11:39:15;;;;;;;5.63;1.55;;;22.10;99.90;;;;;;5063117;28;20982;-71
2022/08/02 11:41:42;;;;;;;4.95;1.52;;;22.30;99.90;;;;;;5062485;28;20388;-70
2022/08/02 11:44:09;;;;;;;4.80;1.70;;;22.40;99.90;;;;;;5062403;28;21244;-70
2022/08/02 11:46:35;;;;;;;4.80;1.50;;;22.50;99.90;;;;;;5065822;28;20387;-70
2022/08/02 11:49:12;;;;;;;6.47;2.00;;;22.50;99.90;;;;;;5065762;28;20399;-70
2022/08/02 11:51:38;;;;;;;4.25;1.75;;;22.60;99.90;;;;;;5066670;28;20426;-70
2022/08/02 11:54:04;;;;;;;5.78;1.48;;;22.70;99.90;;;;;;5066555;28;20416;-70
2022/08/02 11:56:33;;;;;;;3.47;1.50;;;22.70;99.90;;;;;;5070622;28;20387;-70
2022/08/02 11:59:02;;;;;;;4.53;1.73;;;22.60;99.90;;;;;;5068640;28;20410;-70
2022/08/02 12:01:30;;;;;;;3.80;1.40;;;22.70;99.90;;;;;;5062653;28;20552;-70
2022/08/02 12:03:59;;;;;;;3.47;1.42;;;22.80;99.90;;;;;;5057671;28;20624;-70
2022/08/02 12:06:28;;;;;;;4.40;1.27;;;23.10;99.90;;;;;;5056025;28;20372;-70
2022/08/02 12:09:05;;;;;;;5.43;1.50;;;23.30;99.90;;;;;;5054982;28;20396;-69
2022/08/02 12:11:31;;;;;;;4.50;1.20;;;23.40;99.90;;;;;;5057769;28;20757;-70
2022/08/02 12:13:57;;;;;;;3.20;1.42;;;23.30;99.90;;;;;;5055880;28;20380;-70
2022/08/02 12:19:25;;;;;;;2.88;1.50;;;23.50;99.90;;;;;;5059067;28;20830;-70
2022/08/02 12:22:16;;;;;;;5.45;1.52;;;23.70;99.90;;;;;;5054947;28;20515;-70
2022/08/02 12:24:46;;;;;;;3.13;1.45;;;23.80;99.90;;;;;;5056727;28;20403;-70
2022/08/02 12:27:40;;;;;;;4.35;1.42;;;24.00;99.90;;;;;;5059939;28;20450;-70
2022/08/02 12:30:09;;;;;;;4.97;1.60;;;24.00;99.90;;;;;;5060040;28;20747;-70
2022/08/02 12:32:35;;;;;;;4.60;1.45;;;24.10;99.90;;;;;;5060068;28;21277;-70
2022/08/02 12:35:15;;;;;;;4.25;1.73;;;24.20;99.90;;;;;;5060691;28;20410;-70
2022/08/02 12:37:46;;;;;;;4.78;1.67;;;24.10;99.90;;;;;;5063648;28;20523;-70
2022/08/02 12:40:19;;;;;;;3.38;1.40;;;24.10;99.90;;;;;;5061874;28;20553;-70
2022/08/02 12:42:46;;;;;;;3.00;1.48;;;24.20;99.90;;;;;;5061754;28;20410;-71
2022/08/02 12:45:12;;;;;;;3.38;1.58;;;24.50;99.90;;;;;;5061185;28;20456;-70
2022/08/02 12:47:49;;;;;;;10.00;1.80;;;24.50;99.90;;;;;;5060078;28;20410;-70
2022/08/02 12:50:26;;;;;;;5.50;1.42;;;24.50;99.90;;;;;;5060396;28;20399;-70
2022/08/02 12:53:09;;;;;;;3.78;1.45;;;24.40;99.90;;;;;;5059421;28;20395;-70
2022/08/02 12:55:45;;;;;;;4.85;1.77;;;24.30;99.90;;;;;;5058467;28;20494;-70
2022/08/02 12:58:10;;;;;;;4.23;1.60;;;24.50;99.90;;;;;;5060592;28;20395;-70